Terminal Aerodrome Forecast
Issued by NWS Pueblo, CO

Home | Current Version | Previous Version | Text Only | Print | Product List | Glossary On
Versions: 1 2 3 4 5 6 7 8 9 10 11 12 13 14 15 16 17 18 19
000
FTUS45 KPUB 181732
TAFPUB
TAF
KPUB 181732Z 1818/1918 VRB06KT P6SM SCT250
     FM182000 17012KT P6SM SCT200
     FM190200 13008KT P6SM SCT100 BKN200
     FM190500 27006KT P6SM SCT100 BKN200
     FM191200 30008KT P6SM BKN100
     FM191700 36010KT P6SM SCT060 BKN100=

USA.gov is the U.S. government's official web portal to all federal, state and local government web resources and services.